createdAt,value
2022-09-23T00:01:10.123Z,3.20
2022-09-23T00:03:41.430Z,3.20
2022-09-23T00:06:11.481Z,3.30
2022-09-23T00:08:39.115Z,3.30
2022-09-23T00:11:08.524Z,3.20
2022-09-23T00:13:36.894Z,3.20
2022-09-23T00:16:09.006Z,3.10
2022-09-23T00:18:36.853Z,3.10
2022-09-23T00:21:05.720Z,3.10
2022-09-23T00:23:33.207Z,3.20
2022-09-23T00:26:02.456Z,3.20
2022-09-23T00:28:30.288Z,3.10
2022-09-23T00:30:57.359Z,3.10
2022-09-23T00:33:24.127Z,3.00
2022-09-23T00:35:51.036Z,3.10
2022-09-23T00:38:17.771Z,3.00
2022-09-23T00:40:46.135Z,3.00
2022-09-23T00:43:14.874Z,3.00
2022-09-23T00:45:50.768Z,3.00
2022-09-23T00:48:20.737Z,2.90
2022-09-23T00:50:53.449Z,2.90
2022-09-23T00:53:23.700Z,2.90
2022-09-23T00:55:55.908Z,2.90
2022-09-23T00:58:33.824Z,3.00
2022-09-23T01:01:01.235Z,3.00
2022-09-23T01:03:28.505Z,3.00
2022-09-23T01:05:57.063Z,3.00
2022-09-23T01:08:26.717Z,2.90
2022-09-23T01:11:14.700Z,2.90
2022-09-23T01:13:59.553Z,2.80
2022-09-23T01:16:38.918Z,2.80
2022-09-23T01:19:36.661Z,2.80
2022-09-23T01:22:28.109Z,2.90
2022-09-23T01:25:19.780Z,2.80
2022-09-23T01:28:05.421Z,2.80
2022-09-23T01:30:57.410Z,2.70
2022-09-23T01:33:43.841Z,2.60
2022-09-23T01:36:19.068Z,2.70
2022-09-23T01:39:01.577Z,2.60
2022-09-23T01:41:43.914Z,2.60
2022-09-23T01:44:30.578Z,2.60
2022-09-23T01:47:14.922Z,2.60
2022-09-23T01:49:52.013Z,2.70
2022-09-23T01:52:24.706Z,2.60
2022-09-23T01:55:01.095Z,2.50
2022-09-23T01:57:53.248Z,2.40
2022-09-23T02:00:22.596Z,2.40
2022-09-23T02:02:54.408Z,2.40
2022-09-23T02:05:54.491Z,2.40
2022-09-23T02:08:27.960Z,2.40
2022-09-23T02:11:18.153Z,2.40
2022-09-23T02:13:58.283Z,2.40
2022-09-23T02:16:35.980Z,2.30
2022-09-23T02:19:11.537Z,2.30
2022-09-23T02:21:44.725Z,2.30
2022-09-23T02:24:19.024Z,2.30
2022-09-23T02:26:55.901Z,2.20
2022-09-23T02:29:36.590Z,2.20
2022-09-23T02:32:40.242Z,2.20
2022-09-23T02:35:19.204Z,2.10
2022-09-23T02:38:02.585Z,2.10
2022-09-23T02:40:38.059Z,2.10
2022-09-23T02:43:23.516Z,2.20
2022-09-23T02:45:50.641Z,2.20
2022-09-23T02:48:25.881Z,2.20
2022-09-23T02:50:53.314Z,2.20
2022-09-23T02:53:22.355Z,2.10
2022-09-23T02:55:50.093Z,2.10
2022-09-23T02:58:17.501Z,2.10
2022-09-23T03:01:07.499Z,2.10
2022-09-23T03:03:37.299Z,2.00
2022-09-23T03:06:15.998Z,2.00
2022-09-23T03:08:51.367Z,2.00
2022-09-23T03:11:18.651Z,2.00
2022-09-23T03:14:00.181Z,2.00
2022-09-23T03:16:47.939Z,1.90
2022-09-23T03:19:23.933Z,1.90
2022-09-23T03:22:03.535Z,1.90
2022-09-23T03:24:32.876Z,2.00
2022-09-23T03:27:04.077Z,1.90
2022-09-23T03:29:32.763Z,1.90
2022-09-23T03:31:59.994Z,1.80
2022-09-23T03:34:33.835Z,1.80
2022-09-23T03:37:37.726Z,1.80
2022-09-23T03:40:04.497Z,1.80
2022-09-23T03:42:33.143Z,1.80
2022-09-23T03:45:01.265Z,1.80
2022-09-23T03:47:28.378Z,1.80
2022-09-23T03:49:56.695Z,1.80
2022-09-23T03:52:25.001Z,1.80
2022-09-23T03:54:52.794Z,1.80
2022-09-23T03:57:23.712Z,1.80
2022-09-23T03:59:51.280Z,1.80
2022-09-23T04:02:20.140Z,1.70
2022-09-23T04:04:47.245Z,1.70
2022-09-23T04:07:14.252Z,1.80
2022-09-23T04:09:41.512Z,1.70
2022-09-23T04:12:11.735Z,1.70
2022-09-23T04:14:39.095Z,1.70
2022-09-23T04:17:05.962Z,1.70
2022-09-23T04:19:32.765Z,1.80
2022-09-23T04:21:59.597Z,1.70
2022-09-23T04:24:26.764Z,1.70
2022-09-23T04:26:55.230Z,1.60
2022-09-23T04:29:22.691Z,1.60
2022-09-23T04:31:52.977Z,1.60
2022-09-23T04:34:20.595Z,1.60
2022-09-23T04:36:48.953Z,1.50
2022-09-23T04:39:17.054Z,1.50
2022-09-23T04:41:44.356Z,1.50
2022-09-23T04:44:19.698Z,1.50
2022-09-23T04:46:49.615Z,1.60
2022-09-23T04:49:16.640Z,1.60
2022-09-23T04:51:43.699Z,1.50
2022-09-23T04:54:12.093Z,1.60
2022-09-23T04:56:39.862Z,1.60
2022-09-23T04:59:07.947Z,1.50
2022-09-23T05:01:36.230Z,1.50
2022-09-23T05:04:06.203Z,1.50
2022-09-23T05:06:35.114Z,1.50
2022-09-23T05:09:06.940Z,1.50
2022-09-23T05:11:34.633Z,1.40
2022-09-23T05:14:01.762Z,1.40
2022-09-23T05:16:29.652Z,1.60
2022-09-23T05:18:57.525Z,1.50
2022-09-23T05:21:28.394Z,1.50
2022-09-23T05:23:58.828Z,1.50
2022-09-23T05:26:28.054Z,1.60
2022-09-23T05:28:56.004Z,1.60
2022-09-23T05:31:27.934Z,1.60
2022-09-23T05:34:03.460Z,1.80
2022-09-23T05:36:37.578Z,1.90
2022-09-23T05:39:05.867Z,1.90
2022-09-23T05:41:33.837Z,1.90
2022-09-23T05:44:01.039Z,1.90
2022-09-23T05:46:29.925Z,1.90
2022-09-23T05:49:02.211Z,1.90
2022-09-23T05:51:31.068Z,2.00
2022-09-23T05:53:58.441Z,2.10
2022-09-23T05:56:27.664Z,2.20
2022-09-23T05:58:56.733Z,2.20
2022-09-23T06:01:27.049Z,2.30
2022-09-23T06:03:55.963Z,2.40
2022-09-23T06:06:37.410Z,2.50
2022-09-23T06:09:04.708Z,2.60
2022-09-23T06:11:35.191Z,2.60
2022-09-23T06:14:02.827Z,2.80
2022-09-23T06:16:32.763Z,2.80
2022-09-23T06:19:05.846Z,2.90
2022-09-23T06:21:35.161Z,3.10
2022-09-23T06:24:02.994Z,3.20
2022-09-23T06:26:33.551Z,3.30
2022-09-23T06:29:02.609Z,3.40
2022-09-23T06:31:29.779Z,3.50
2022-09-23T06:34:08.554Z,3.60
2022-09-23T06:36:43.888Z,3.80
2022-09-23T06:39:12.215Z,4.00
2022-09-23T06:41:39.323Z,4.10
2022-09-23T06:44:11.781Z,4.20
2022-09-23T06:46:38.631Z,4.30
2022-09-23T06:49:05.400Z,4.50
2022-09-23T06:51:32.270Z,4.60
2022-09-23T06:53:59.098Z,4.70
2022-09-23T06:56:25.864Z,4.90
2022-09-23T06:58:53.105Z,5.10
2022-09-23T07:01:20.138Z,5.30
2022-09-23T07:03:48.288Z,5.50
2022-09-23T07:06:15.674Z,5.70
2022-09-23T07:08:44.884Z,5.80
2022-09-23T07:11:13.413Z,6.00
2022-09-23T07:13:42.409Z,6.20
2022-09-23T07:16:11.017Z,6.30
2022-09-23T07:18:38.356Z,6.50
2022-09-23T07:21:17.410Z,6.60
2022-09-23T07:23:48.823Z,6.70
2022-09-23T07:26:16.603Z,6.90
2022-09-23T07:28:43.527Z,7.00
2022-09-23T07:31:13.221Z,7.20
2022-09-23T07:33:43.671Z,7.30
2022-09-23T07:36:15.065Z,7.50
2022-09-23T07:38:45.514Z,7.60
2022-09-23T07:41:15.416Z,7.80
2022-09-23T07:43:42.250Z,7.90
2022-09-23T07:46:12.624Z,8.10
2022-09-23T07:48:39.443Z,8.20
2022-09-23T07:51:20.226Z,8.30
2022-09-23T07:53:51.680Z,8.50
2022-09-23T07:56:19.943Z,8.60
2022-09-23T07:58:59.836Z,8.70
2022-09-23T08:01:29.514Z,8.80
2022-09-23T08:04:10.530Z,9.00
2022-09-23T08:06:41.369Z,9.10
2022-09-23T08:09:08.188Z,9.30
2022-09-23T08:11:36.426Z,9.50
2022-09-23T08:14:03.080Z,9.60
2022-09-23T08:16:29.836Z,9.70
2022-09-23T08:18:56.807Z,9.80
2022-09-23T08:21:23.545Z,9.90
2022-09-23T08:23:51.708Z,10.00
2022-09-23T08:26:22.132Z,10.10
2022-09-23T08:28:50.339Z,10.20
2022-09-23T08:31:17.286Z,10.30
2022-09-23T08:33:44.408Z,10.40
2022-09-23T08:36:11.415Z,10.50
2022-09-23T08:38:38.154Z,10.60
2022-09-23T08:41:43.452Z,10.70
2022-09-23T08:44:17.688Z,10.80
2022-09-23T08:46:53.183Z,10.90
2022-09-23T08:49:36.623Z,11.00
2022-09-23T08:52:14.584Z,11.10
2022-09-23T08:54:41.347Z,11.30
2022-09-23T08:57:23.016Z,11.50
2022-09-23T08:59:50.271Z,11.60
2022-09-23T09:02:22.821Z,11.70
2022-09-23T09:04:56.500Z,11.70
2022-09-23T09:07:36.769Z,11.90
2022-09-23T09:10:26.768Z,11.90
2022-09-23T09:13:10.831Z,12.20
2022-09-23T09:16:23.869Z,12.30
2022-09-23T09:19:08.631Z,12.50
2022-09-23T09:21:39.881Z,12.60
2022-09-23T09:24:16.884Z,12.90
2022-09-23T09:26:43.665Z,12.90
2022-09-23T09:29:35.832Z,13.00
2022-09-23T09:32:16.736Z,13.10
2022-09-23T09:35:18.743Z,13.30
2022-09-23T09:37:53.243Z,13.60
2022-09-23T09:40:20.763Z,13.80
2022-09-23T09:42:50.235Z,13.90
2022-09-23T09:46:01.654Z,14.00
2022-09-23T09:48:54.299Z,14.10
2022-09-23T09:51:24.130Z,14.20
2022-09-23T09:53:55.948Z,14.30
2022-09-23T09:56:31.648Z,14.40
2022-09-23T09:59:01.879Z,14.40
2022-09-23T10:01:35.191Z,14.50
2022-09-23T10:04:05.868Z,14.50
2022-09-23T10:06:34.582Z,14.50
2022-09-23T10:09:04.642Z,14.70
2022-09-23T10:11:32.590Z,14.70
2022-09-23T10:14:18.576Z,14.80
2022-09-23T10:16:50.008Z,15.00
2022-09-23T10:19:27.090Z,15.00
2022-09-23T10:21:58.600Z,15.10
2022-09-23T10:24:32.092Z,15.10
2022-09-23T10:27:07.820Z,15.20
2022-09-23T10:29:39.088Z,15.30
2022-09-23T10:32:36.358Z,15.40
2022-09-23T10:35:09.041Z,15.50
2022-09-23T10:37:41.442Z,15.80
2022-09-23T10:40:35.630Z,15.90
2022-09-23T10:43:42.339Z,16.00
2022-09-23T10:46:38.432Z,16.20
2022-09-23T10:49:31.333Z,16.30
2022-09-23T10:52:03.931Z,16.50
2022-09-23T10:55:09.199Z,16.60
2022-09-23T10:57:44.948Z,16.60
2022-09-23T11:00:22.558Z,16.60
2022-09-23T11:03:19.807Z,16.50
2022-09-23T11:06:02.716Z,16.60
2022-09-23T11:08:59.184Z,16.70
2022-09-23T11:11:35.799Z,16.90
2022-09-23T11:14:30.659Z,17.00
2022-09-23T11:17:25.899Z,17.20
2022-09-23T11:20:11.473Z,17.30
2022-09-23T11:22:53.321Z,17.50
2022-09-23T11:25:54.576Z,17.40
2022-09-23T11:28:29.420Z,17.50
2022-09-23T11:31:21.258Z,17.50
2022-09-23T11:33:54.227Z,17.40
2022-09-23T11:36:34.090Z,17.30
2022-09-23T11:39:11.417Z,17.20
2022-09-23T11:41:43.112Z,17.10
2022-09-23T11:44:20.056Z,17.30
2022-09-23T11:46:58.650Z,17.20
2022-09-23T11:49:30.002Z,17.10
2022-09-23T11:52:02.605Z,17.10
2022-09-23T11:54:38.864Z,17.00
2022-09-23T11:57:11.387Z,16.80
2022-09-23T12:02:30.908Z,17.10
2022-09-23T12:05:11.163Z,17.20
2022-09-23T12:08:04.432Z,17.60
2022-09-23T12:11:11.859Z,17.80
2022-09-23T12:14:21.180Z,18.30
2022-09-23T12:17:02.971Z,18.80
2022-09-23T12:19:55.422Z,19.10
2022-09-23T12:22:37.648Z,19.40
2022-09-23T12:25:10.406Z,20.30
2022-09-23T12:27:43.803Z,21.00
2022-09-23T12:30:32.363Z,21.00
2022-09-23T12:33:16.726Z,20.70
2022-09-23T12:35:45.929Z,20.80
2022-09-23T12:38:25.676Z,20.30
2022-09-23T12:40:54.970Z,19.90
2022-09-23T12:43:30.993Z,20.00
2022-09-23T12:46:17.953Z,19.90
2022-09-23T12:49:00.579Z,20.00
2022-09-23T12:51:33.755Z,20.40
2022-09-23T12:54:22.316Z,20.30
2022-09-23T12:56:52.219Z,20.10
2022-09-23T12:59:27.221Z,20.00
2022-09-23T13:01:54.591Z,20.10
2022-09-23T13:04:53.191Z,19.70
2022-09-23T13:07:29.945Z,19.70
2022-09-23T13:10:06.639Z,20.50
2022-09-23T13:12:38.951Z,21.60
2022-09-23T13:15:18.123Z,22.40
2022-09-23T13:17:47.794Z,22.50
2022-09-23T13:20:38.887Z,23.70
2022-09-23T13:23:17.088Z,25.00
2022-09-23T13:25:44.604Z,23.80
2022-09-23T13:28:38.992Z,23.30
2022-09-23T13:31:13.706Z,24.40
2022-09-23T13:33:47.190Z,25.70
2022-09-23T13:36:16.906Z,26.20
2022-09-23T13:38:46.550Z,26.60
2022-09-23T13:41:19.762Z,26.50
2022-09-23T13:43:53.651Z,26.70
2022-09-23T13:46:27.036Z,26.80
2022-09-23T13:48:55.186Z,25.70
2022-09-23T13:51:29.357Z,25.80
2022-09-23T13:53:58.884Z,25.70
2022-09-23T13:56:28.255Z,24.80
2022-09-23T13:59:13.898Z,25.00
2022-09-23T14:01:40.772Z,24.30
2022-09-23T14:04:26.454Z,23.60
2022-09-23T14:06:54.482Z,24.00
2022-09-23T14:09:27.300Z,23.90
2022-09-23T14:11:57.149Z,23.70
2022-09-23T14:14:24.241Z,23.70
2022-09-23T14:16:52.059Z,23.30
2022-09-23T14:19:21.795Z,23.10
2022-09-23T14:21:51.299Z,23.40
2022-09-23T14:24:34.234Z,22.80
2022-09-23T14:27:07.483Z,22.10
2022-09-23T14:29:40.073Z,21.20
2022-09-23T14:32:20.973Z,20.60
2022-09-23T14:35:17.894Z,20.10
2022-09-23T14:38:05.488Z,20.00
2022-09-23T14:40:38.778Z,20.10
2022-09-23T14:43:24.175Z,20.60
2022-09-23T14:45:57.322Z,20.90
2022-09-23T14:48:33.262Z,20.90
2022-09-23T14:51:10.803Z,20.90
2022-09-23T14:53:45.708Z,20.60
2022-09-23T14:56:22.968Z,20.20
2022-09-23T14:58:56.238Z,19.70
2022-09-23T15:01:27.869Z,19.40
2022-09-23T15:03:56.034Z,19.30
2022-09-23T15:06:23.343Z,19.00
2022-09-23T15:08:51.667Z,19.10
2022-09-23T15:11:18.738Z,18.80
2022-09-23T15:13:52.683Z,18.60
2022-09-23T15:16:28.004Z,18.40
2022-09-23T15:18:57.761Z,18.10
2022-09-23T15:21:30.382Z,18.00
2022-09-23T15:23:57.832Z,17.80
2022-09-23T15:26:40.606Z,17.60
2022-09-23T15:29:10.577Z,17.50
2022-09-23T15:31:37.696Z,17.40
2022-09-23T15:34:08.869Z,17.20
2022-09-23T15:36:39.588Z,17.20
2022-09-23T15:39:08.618Z,17.10
2022-09-23T15:41:35.456Z,17.00
2022-09-23T15:44:16.380Z,17.00
2022-09-23T15:46:49.199Z,17.00
2022-09-23T15:49:45.954Z,17.00
2022-09-23T15:52:16.304Z,17.10
2022-09-23T15:54:43.943Z,17.10
2022-09-23T15:57:11.162Z,17.10
2022-09-23T15:59:38.212Z,17.30
2022-09-23T16:02:15.676Z,17.40
2022-09-23T16:04:42.503Z,17.50
2022-09-23T16:07:16.427Z,17.40
2022-09-23T16:09:43.341Z,17.30
2022-09-23T16:12:12.089Z,17.20
2022-09-23T16:14:41.671Z,17.10
2022-09-23T16:17:13.074Z,17.00
2022-09-23T16:19:40.003Z,16.90
2022-09-23T16:22:06.843Z,16.80
2022-09-23T16:24:33.721Z,16.60
2022-09-23T16:27:03.595Z,16.40
2022-09-23T16:29:30.348Z,16.30
2022-09-23T16:31:57.207Z,16.10
2022-09-23T16:34:23.961Z,15.80
2022-09-23T16:36:50.716Z,15.60
2022-09-23T16:39:19.961Z,15.40
2022-09-23T16:41:47.627Z,15.00
2022-09-23T16:44:16.223Z,14.70
2022-09-23T16:46:44.052Z,14.40
2022-09-23T16:49:14.163Z,14.20
2022-09-23T16:51:41.039Z,13.90
2022-09-23T16:54:12.795Z,13.70
2022-09-23T16:56:44.205Z,13.50
2022-09-23T16:59:15.059Z,13.50
2022-09-23T17:02:01.081Z,13.30
2022-09-23T17:04:28.053Z,13.20
2022-09-23T17:06:55.973Z,12.90
2022-09-23T17:09:25.952Z,12.70
2022-09-23T17:12:11.296Z,12.60
2022-09-23T17:14:39.256Z,12.40
2022-09-23T17:17:06.640Z,12.20
2022-09-23T17:19:34.537Z,12.10
2022-09-23T17:22:01.314Z,12.00
2022-09-23T17:24:28.064Z,11.90
2022-09-23T17:26:54.996Z,11.80
2022-09-23T17:29:21.724Z,11.70
2022-09-23T17:31:48.525Z,11.60
2022-09-23T17:34:19.353Z,11.40
2022-09-23T17:36:46.378Z,11.30
2022-09-23T17:39:13.897Z,11.20
2022-09-23T17:41:40.630Z,11.10
2022-09-23T17:44:10.990Z,11.00
2022-09-23T17:46:37.742Z,10.90
2022-09-23T17:49:07.621Z,10.80
2022-09-23T17:51:34.490Z,10.60
2022-09-23T17:54:01.241Z,10.60
2022-09-23T17:56:32.695Z,10.50
2022-09-23T17:59:01.907Z,10.50
2022-09-23T18:01:31.876Z,10.40
2022-09-23T18:04:00.836Z,10.30
2022-09-23T18:06:31.702Z,10.30
2022-09-23T18:09:06.539Z,10.30
2022-09-23T18:11:36.494Z,10.30
2022-09-23T18:14:11.855Z,10.30
2022-09-23T18:16:40.664Z,10.30
2022-09-23T18:19:10.385Z,10.30
2022-09-23T18:21:41.404Z,10.20
2022-09-23T18:26:59.549Z,10.10
2022-09-23T18:29:26.616Z,10.00
2022-09-23T18:31:53.632Z,9.90
2022-09-23T18:34:20.661Z,9.90
2022-09-23T18:36:47.647Z,9.80
2022-09-23T18:39:15.163Z,9.70
2022-09-23T18:41:42.325Z,9.70
2022-09-23T18:44:09.415Z,9.70
2022-09-23T18:46:36.503Z,9.70
2022-09-23T18:49:22.153Z,9.60
2022-09-23T18:51:52.240Z,9.50
2022-09-23T18:54:22.317Z,9.40
2022-09-23T18:56:54.206Z,9.30
2022-09-23T18:59:24.671Z,9.20
2022-09-23T19:01:51.920Z,9.20
2022-09-23T19:04:20.632Z,9.10
2022-09-23T19:06:48.176Z,9.10
2022-09-23T19:09:16.232Z,9.00
2022-09-23T19:11:44.296Z,9.00
2022-09-23T19:14:12.198Z,9.00
2022-09-23T19:16:40.414Z,8.90
2022-09-23T19:19:07.761Z,9.00
2022-09-23T19:21:34.955Z,9.00
2022-09-23T19:24:04.825Z,9.00
2022-09-23T19:26:36.693Z,9.00
2022-09-23T19:29:04.608Z,9.00
2022-09-23T19:31:35.098Z,8.90
2022-09-23T19:34:10.360Z,8.90
2022-09-23T19:36:40.061Z,8.80
2022-09-23T19:39:16.181Z,8.80
2022-09-23T19:41:42.957Z,8.70
2022-09-23T19:44:10.307Z,8.70
2022-09-23T19:46:39.103Z,8.70
2022-09-23T19:49:07.042Z,8.60
2022-09-23T19:51:34.528Z,8.60
2022-09-23T19:54:02.085Z,8.50
2022-09-23T19:56:30.194Z,8.50
2022-09-23T19:58:58.268Z,8.40
2022-09-23T20:01:27.206Z,8.40
2022-09-23T20:03:53.985Z,8.40
2022-09-23T20:06:21.638Z,8.30
2022-09-23T20:08:49.406Z,8.20
2022-09-23T20:11:19.503Z,8.20
2022-09-23T20:13:47.554Z,8.10
2022-09-23T20:16:19.255Z,8.10
2022-09-23T20:18:47.021Z,8.10
2022-09-23T20:21:15.505Z,8.10
2022-09-23T20:23:45.098Z,8.10
2022-09-23T20:26:30.240Z,8.10
2022-09-23T20:28:57.033Z,8.10
2022-09-23T20:31:25.450Z,8.10
2022-09-23T20:33:55.617Z,8.10
2022-09-23T20:36:22.729Z,8.20
2022-09-23T20:38:54.499Z,8.10
2022-09-23T20:41:21.517Z,8.10
2022-09-23T20:43:51.860Z,8.10
2022-09-23T20:46:18.984Z,8.10
2022-09-23T20:48:47.356Z,8.00
2022-09-23T20:51:14.146Z,8.00
2022-09-23T20:53:41.353Z,8.10
2022-09-23T20:56:08.300Z,8.10
2022-09-23T20:58:39.086Z,8.10
2022-09-23T21:01:10.653Z,8.10
2022-09-23T21:03:42.677Z,8.10
2022-09-23T21:06:11.513Z,8.10
2022-09-23T21:08:39.331Z,8.10
2022-09-23T21:11:09.516Z,8.10
2022-09-23T21:13:36.912Z,8.10
2022-09-23T21:16:09.673Z,8.20
2022-09-23T21:18:37.992Z,8.20
2022-09-23T21:21:05.181Z,8.20
2022-09-23T21:23:38.202Z,8.20
2022-09-23T21:26:10.209Z,8.20
2022-09-23T21:28:38.993Z,8.10
2022-09-23T21:31:11.063Z,8.20
2022-09-23T21:33:38.098Z,8.20
2022-09-23T21:36:06.986Z,8.30
2022-09-23T21:38:37.656Z,8.30
2022-09-23T21:41:07.470Z,8.20
2022-09-23T21:43:35.985Z,8.30
2022-09-23T21:46:07.740Z,8.20
2022-09-23T21:48:36.938Z,8.20
2022-09-23T21:51:07.199Z,8.20
2022-09-23T21:53:36.787Z,8.10
2022-09-23T21:56:05.239Z,8.10
2022-09-23T21:58:33.911Z,8.20
2022-09-23T22:01:02.169Z,8.10
2022-09-23T22:03:29.150Z,8.20
2022-09-23T22:06:11.358Z,8.10
2022-09-23T22:08:41.282Z,8.10
2022-09-23T22:11:29.700Z,8.10
2022-09-23T22:13:57.492Z,8.10
2022-09-23T22:16:24.929Z,8.10
2022-09-23T22:18:55.131Z,8.10
2022-09-23T22:21:23.094Z,8.10
2022-09-23T22:23:57.173Z,8.10
2022-09-23T22:26:24.786Z,8.10
2022-09-23T22:29:09.984Z,8.10
2022-09-23T22:31:55.441Z,8.00
2022-09-23T22:34:48.540Z,8.10
2022-09-23T22:37:17.816Z,8.10
2022-09-23T22:39:45.150Z,8.10
2022-09-23T22:42:15.728Z,8.10
2022-09-23T22:44:42.758Z,8.10
2022-09-23T22:47:10.261Z,8.10
2022-09-23T22:49:37.226Z,8.00
2022-09-23T22:52:07.803Z,8.10
2022-09-23T22:54:35.082Z,8.10
2022-09-23T22:57:05.087Z,8.10
2022-09-23T22:59:31.871Z,8.10
2022-09-23T23:02:02.827Z,8.10
2022-09-23T23:04:30.424Z,8.10
2022-09-23T23:06:58.731Z,8.00
2022-09-23T23:09:26.035Z,8.00
2022-09-23T23:11:52.814Z,8.00
2022-09-23T23:14:20.330Z,8.00
2022-09-23T23:16:47.723Z,8.00
2022-09-23T23:19:17.271Z,8.00
2022-09-23T23:21:45.400Z,8.00
2022-09-23T23:24:23.279Z,7.90
2022-09-23T23:26:51.372Z,7.90
2022-09-23T23:29:19.681Z,7.90
2022-09-23T23:31:47.013Z,7.90
2022-09-23T23:34:19.623Z,7.90
2022-09-23T23:36:47.927Z,7.90
2022-09-23T23:39:15.001Z,7.90
2022-09-23T23:41:42.433Z,7.80
2022-09-23T23:44:11.577Z,7.80
2022-09-23T23:46:38.727Z,7.80
2022-09-23T23:49:06.772Z,7.80
2022-09-23T23:51:33.573Z,7.80
2022-09-23T23:54:00.959Z,7.80
2022-09-23T23:56:30.219Z,7.80
2022-09-23T23:58:58.969Z,7.90
